createdAt,value
2023-11-08T00:01:29.548Z,18.75
2023-11-08T00:04:15.317Z,28.67
2023-11-08T00:07:01.051Z,23.08
2023-11-08T00:09:46.328Z,14.25
2023-11-08T00:12:31.842Z,17.67
2023-11-08T00:15:17.299Z,15.18
2023-11-08T00:18:02.681Z,19.23
2023-11-08T00:20:47.989Z,17.63
2023-11-08T00:23:33.260Z,16.50
2023-11-08T00:26:18.877Z,14.75
2023-11-08T00:29:04.001Z,14.30
2023-11-08T00:31:49.344Z,17.52
2023-11-08T00:34:34.884Z,17.20
2023-11-08T00:37:20.412Z,20.17
2023-11-08T00:40:07.040Z,12.60
2023-11-08T00:42:52.435Z,11.38
2023-11-08T00:45:37.866Z,14.95
2023-11-08T00:48:24.967Z,10.25
2023-11-08T00:51:28.775Z,13.95
2023-11-08T00:54:13.912Z,10.80
2023-11-08T00:56:59.331Z,20.25
2023-11-08T00:59:44.659Z,18.88
2023-11-08T01:02:30.181Z,14.88
2023-11-08T01:05:16.436Z,15.50
2023-11-08T01:08:01.978Z,18.38
2023-11-08T01:10:48.080Z,15.95
2023-11-08T01:13:37.710Z,14.50
2023-11-08T01:16:22.896Z,18.13
2023-11-08T01:19:08.692Z,13.95
2023-11-08T01:21:54.236Z,19.08
2023-11-08T01:24:42.343Z,16.00
2023-11-08T01:27:27.757Z,15.48
2023-11-08T01:30:13.551Z,15.73
2023-11-08T01:32:59.331Z,16.88
2023-11-08T01:35:45.381Z,20.50
2023-11-08T01:38:30.500Z,18.48
2023-11-08T01:41:15.898Z,18.55
2023-11-08T01:44:01.483Z,22.30
2023-11-08T01:46:55.280Z,16.33
2023-11-08T01:49:42.138Z,20.75
2023-11-08T01:52:31.296Z,16.40
2023-11-08T01:55:16.318Z,18.90
2023-11-08T01:58:01.794Z,17.25
2023-11-08T02:00:50.512Z,21.48
2023-11-08T02:03:38.334Z,18.08
2023-11-08T02:06:23.873Z,17.60
2023-11-08T02:09:10.305Z,16.38
2023-11-08T02:11:59.198Z,20.88
2023-11-08T02:15:04.908Z,26.50
2023-11-08T02:17:50.434Z,22.23
2023-11-08T02:20:35.755Z,16.00
2023-11-08T02:23:21.114Z,18.85
2023-11-08T02:26:06.564Z,16.85
2023-11-08T02:28:52.004Z,17.05
2023-11-08T02:31:37.570Z,17.33
2023-11-08T02:34:23.064Z,14.55
2023-11-08T02:37:08.960Z,22.05
2023-11-08T02:39:54.409Z,16.73
2023-11-08T02:42:44.054Z,21.15
2023-11-08T02:45:29.144Z,17.65
2023-11-08T02:48:14.931Z,18.08
2023-11-08T02:51:00.847Z,20.40
2023-11-08T02:53:45.879Z,18.75
2023-11-08T02:56:38.120Z,17.35
2023-11-08T02:59:23.294Z,17.27
2023-11-08T03:02:09.109Z,15.93
2023-11-08T03:04:54.626Z,14.05
2023-11-08T03:07:40.224Z,19.55
2023-11-08T03:10:25.561Z,15.13
2023-11-08T03:13:11.358Z,17.60
2023-11-08T03:15:58.166Z,16.73
2023-11-08T03:18:43.311Z,16.98
2023-11-08T03:21:28.747Z,19.63
2023-11-08T03:24:14.077Z,17.13
2023-11-08T03:26:59.671Z,15.93
2023-11-08T03:29:44.805Z,14.35
2023-11-08T03:32:31.453Z,19.20
2023-11-08T03:35:16.961Z,16.95
2023-11-08T03:38:02.380Z,14.90
2023-11-08T03:40:48.095Z,14.05
2023-11-08T03:43:33.506Z,17.27
2023-11-08T03:46:18.897Z,15.48
2023-11-08T03:49:04.642Z,14.75
2023-11-08T03:51:49.968Z,16.02
2023-11-08T03:54:35.601Z,13.20
2023-11-08T03:57:23.541Z,18.25
2023-11-08T04:00:09.473Z,11.38
2023-11-08T04:02:54.940Z,13.00
2023-11-08T04:05:40.132Z,15.38
2023-11-08T04:08:25.807Z,12.25
2023-11-08T04:11:11.153Z,14.23
2023-11-08T04:13:56.702Z,12.35
2023-11-08T04:16:42.211Z,15.55
2023-11-08T04:19:28.097Z,16.08
2023-11-08T04:22:15.376Z,15.43
2023-11-08T04:25:01.249Z,17.75
2023-11-08T04:27:46.549Z,14.63
2023-11-08T04:30:32.148Z,20.25
2023-11-08T04:33:17.380Z,12.32
2023-11-08T04:36:03.739Z,10.85
2023-11-08T04:38:49.232Z,13.98
2023-11-08T04:41:34.448Z,10.98
2023-11-08T04:44:20.867Z,14.25
2023-11-08T04:47:06.638Z,12.52
2023-11-08T04:49:51.888Z,13.05
2023-11-08T04:52:37.344Z,16.33
2023-11-08T04:55:22.724Z,11.45
2023-11-08T04:58:07.997Z,21.05
2023-11-08T05:00:53.486Z,13.82
2023-11-08T05:03:38.735Z,14.93
2023-11-08T05:06:24.107Z,17.55
2023-11-08T05:09:09.451Z,11.50
2023-11-08T05:11:54.877Z,11.07
2023-11-08T05:14:40.204Z,8.05
2023-11-08T05:17:25.690Z,10.60
2023-11-08T05:20:12.389Z,10.85
2023-11-08T05:22:57.804Z,9.15
2023-11-08T05:25:43.424Z,8.45
2023-11-08T05:28:28.703Z,9.05
2023-11-08T05:31:15.249Z,19.50
2023-11-08T05:34:02.534Z,10.20
2023-11-08T05:36:47.923Z,16.20
2023-11-08T05:39:33.320Z,13.35
2023-11-08T05:42:23.839Z,11.98
2023-11-08T05:45:09.745Z,16.15
2023-11-08T05:47:54.778Z,8.57
2023-11-08T05:50:44.323Z,6.43
2023-11-08T05:53:29.322Z,7.57
2023-11-08T05:56:14.679Z,7.28
2023-11-08T05:58:59.931Z,6.68
2023-11-08T06:01:45.227Z,9.05
2023-11-08T06:04:31.299Z,6.82
2023-11-08T06:07:16.756Z,7.38
2023-11-08T06:10:03.040Z,8.07
2023-11-08T06:12:48.572Z,13.38
2023-11-08T06:15:33.960Z,10.68
2023-11-08T06:18:25.984Z,11.18
2023-11-08T06:21:15.254Z,13.07
2023-11-08T06:24:03.272Z,14.30
2023-11-08T06:26:48.963Z,16.05
2023-11-08T06:29:38.330Z,13.82
2023-11-08T06:32:23.795Z,12.70
2023-11-08T06:35:09.412Z,12.73
2023-11-08T06:37:55.004Z,14.18
2023-11-08T06:40:41.188Z,12.98
2023-11-08T06:43:26.516Z,14.13
2023-11-08T06:46:11.991Z,12.00
2023-11-08T06:48:58.970Z,11.68
2023-11-08T06:51:45.376Z,6.25
2023-11-08T06:54:32.126Z,6.68
2023-11-08T06:57:17.232Z,6.00
2023-11-08T07:00:02.497Z,7.63
2023-11-08T07:02:47.861Z,2.10
2023-11-08T07:05:38.277Z,3.35
2023-11-08T07:08:24.972Z,1.77
2023-11-08T07:11:10.293Z,2.22
2023-11-08T07:13:56.226Z,8.68
2023-11-08T07:16:43.442Z,2.78
2023-11-08T07:19:29.274Z,6.18
2023-11-08T07:22:15.400Z,1.38
2023-11-08T07:25:00.929Z,1.23
2023-11-08T07:27:46.075Z,0.98
2023-11-08T07:30:31.546Z,1.85
2023-11-08T07:33:19.057Z,1.48
2023-11-08T07:36:06.533Z,1.88
2023-11-08T07:38:52.256Z,1.30
2023-11-08T07:41:37.562Z,2.88
2023-11-08T07:44:22.939Z,0.93
2023-11-08T07:47:08.360Z,0.80
2023-11-08T07:49:53.650Z,1.60
2023-11-08T07:52:39.082Z,2.35
2023-11-08T07:55:24.434Z,7.28
2023-11-08T07:58:10.104Z,1.58
2023-11-08T08:00:55.492Z,3.30
2023-11-08T08:03:41.592Z,5.55
2023-11-08T08:06:27.304Z,7.18
2023-11-08T08:09:16.520Z,3.22
2023-11-08T08:12:01.916Z,1.58
2023-11-08T08:14:47.228Z,2.13
2023-11-08T08:17:36.096Z,3.10
2023-11-08T08:23:11.198Z,6.90
2023-11-08T08:25:57.786Z,3.33
2023-11-08T08:28:43.894Z,2.72
2023-11-08T08:31:30.160Z,2.45
2023-11-08T08:34:23.143Z,3.35
2023-11-08T08:37:12.828Z,2.95
2023-11-08T08:39:58.166Z,4.38
2023-11-08T08:42:44.637Z,4.15
2023-11-08T08:45:31.162Z,3.38
2023-11-08T08:48:16.548Z,4.25
2023-11-08T08:51:02.685Z,5.38
2023-11-08T08:53:48.036Z,4.82
2023-11-08T08:56:34.729Z,16.30
2023-11-08T08:59:20.096Z,6.97
2023-11-08T09:02:05.840Z,6.93
2023-11-08T09:04:52.800Z,7.32
2023-11-08T09:07:37.851Z,11.88
2023-11-08T09:10:23.362Z,5.78
2023-11-08T09:13:08.645Z,4.85
2023-11-08T09:15:54.687Z,3.83
2023-11-08T09:18:40.859Z,3.83
2023-11-08T09:21:27.218Z,3.85
2023-11-08T09:24:12.640Z,4.50
2023-11-08T09:26:58.064Z,2.95
2023-11-08T09:29:43.524Z,3.53
2023-11-08T09:32:29.064Z,6.07
2023-11-08T09:35:14.601Z,9.70
2023-11-08T09:38:00.308Z,6.70
2023-11-08T09:40:45.400Z,8.57
2023-11-08T09:43:32.291Z,7.57
2023-11-08T09:46:17.920Z,5.25
2023-11-08T09:49:03.220Z,5.07
2023-11-08T09:51:48.347Z,5.95
2023-11-08T09:54:33.689Z,7.22
2023-11-08T09:57:21.213Z,4.32
2023-11-08T10:00:08.214Z,4.63
2023-11-08T10:02:55.231Z,1.42
2023-11-08T10:05:41.003Z,2.38
2023-11-08T10:08:26.116Z,2.17
2023-11-08T10:11:17.036Z,4.38
2023-11-08T10:14:04.422Z,3.00
2023-11-08T10:16:55.389Z,2.97
2023-11-08T10:19:49.163Z,5.32
2023-11-08T10:22:38.699Z,3.25
2023-11-08T10:25:27.283Z,3.70
2023-11-08T10:28:12.309Z,4.72
2023-11-08T10:30:57.758Z,4.10
2023-11-08T10:33:57.624Z,3.58
2023-11-08T10:36:43.149Z,3.05
2023-11-08T10:39:28.968Z,2.55
2023-11-08T10:42:14.683Z,3.03
2023-11-08T10:45:10.124Z,3.53
2023-11-08T10:47:56.840Z,5.90
2023-11-08T10:50:44.762Z,3.50
2023-11-08T10:53:29.990Z,3.33
2023-11-08T10:56:18.930Z,4.20
2023-11-08T11:01:50.686Z,3.90
2023-11-08T11:04:36.347Z,5.78
2023-11-08T11:07:25.915Z,4.65
2023-11-08T11:10:13.245Z,2.97
2023-11-08T11:13:04.939Z,3.95
2023-11-08T11:15:59.548Z,6.93
2023-11-08T11:18:47.437Z,3.55
2023-11-08T11:21:45.017Z,3.47
2023-11-08T11:24:39.124Z,4.88
2023-11-08T11:27:33.682Z,2.72
2023-11-08T11:30:19.012Z,2.55
2023-11-08T11:33:06.352Z,2.45
2023-11-08T11:35:51.870Z,3.08
2023-11-08T11:38:37.364Z,3.92
2023-11-08T11:41:26.294Z,2.63
2023-11-08T11:44:13.786Z,2.50
2023-11-08T11:46:58.912Z,3.80
2023-11-08T11:49:49.574Z,2.45
2023-11-08T11:52:37.039Z,5.55
2023-11-08T11:55:22.822Z,2.20
2023-11-08T11:58:12.174Z,4.95
2023-11-08T12:00:57.632Z,3.30
2023-11-08T12:03:44.375Z,2.30
2023-11-08T12:06:30.223Z,3.33
2023-11-08T12:09:15.382Z,2.53
2023-11-08T12:12:00.889Z,1.77
2023-11-08T12:14:46.288Z,2.75
2023-11-08T12:17:31.777Z,8.27
2023-11-08T12:20:21.230Z,5.53
2023-11-08T12:23:08.050Z,6.25
2023-11-08T12:25:53.270Z,2.83
2023-11-08T12:28:39.533Z,3.47
2023-11-08T12:31:28.944Z,4.28
2023-11-08T12:34:16.164Z,3.15
2023-11-08T12:37:01.612Z,6.32
2023-11-08T12:39:47.052Z,3.22
2023-11-08T12:42:32.516Z,3.05
2023-11-08T12:46:34.174Z,2.05
2023-11-08T12:48:40.021Z,2.50
2023-11-08T12:51:33.575Z,1.90
2023-11-08T12:54:20.197Z,3.50
2023-11-08T12:57:06.546Z,4.05
2023-11-08T12:59:52.223Z,2.15
2023-11-08T13:02:37.392Z,2.45
2023-11-08T13:05:22.968Z,2.85
2023-11-08T13:08:13.614Z,5.05
2023-11-08T13:11:02.044Z,1.67
2023-11-08T13:13:47.224Z,3.00
2023-11-08T13:16:33.865Z,1.75
2023-11-08T13:19:19.337Z,2.42
2023-11-08T13:22:04.766Z,2.45
2023-11-08T13:24:52.037Z,2.72
2023-11-08T13:27:37.123Z,3.15
2023-11-08T13:30:24.182Z,4.18
2023-11-08T13:33:09.709Z,2.22
2023-11-08T13:35:55.010Z,10.07
2023-11-08T13:38:40.671Z,5.32
2023-11-08T13:41:26.358Z,2.95
2023-11-08T13:44:11.562Z,2.88
2023-11-08T13:46:56.934Z,3.05
2023-11-08T13:49:42.488Z,1.70
2023-11-08T13:52:27.930Z,3.53
2023-11-08T13:55:13.529Z,3.08
2023-11-08T13:57:58.743Z,1.92
2023-11-08T14:00:45.522Z,3.58
2023-11-08T14:03:30.893Z,3.05
2023-11-08T14:06:16.429Z,3.15
2023-11-08T14:09:01.815Z,2.03
2023-11-08T14:11:48.110Z,3.28
2023-11-08T14:14:34.123Z,2.35
2023-11-08T14:17:22.805Z,3.67
2023-11-08T14:20:09.040Z,21.95
2023-11-08T14:22:54.792Z,23.33
2023-11-08T14:25:39.898Z,73.32
2023-11-08T14:28:25.439Z,29.50
2023-11-08T14:31:11.450Z,6.50
2023-11-08T14:33:57.092Z,5.57
2023-11-08T14:36:56.331Z,3.15
2023-11-08T14:39:43.019Z,2.35
2023-11-08T14:42:28.444Z,4.63
2023-11-08T14:45:13.827Z,2.50
2023-11-08T14:47:59.552Z,7.38
2023-11-08T14:50:44.864Z,3.53
2023-11-08T14:53:30.372Z,2.28
2023-11-08T14:56:16.290Z,13.25
2023-11-08T14:59:01.732Z,10.73
2023-11-08T15:01:46.794Z,7.32
2023-11-08T15:04:32.191Z,8.27
2023-11-08T15:09:40.737Z,6.68
2023-11-08T15:10:23.293Z,8.98
2023-11-08T15:13:08.593Z,3.30
2023-11-08T15:15:53.924Z,1.67
2023-11-08T15:18:39.325Z,4.68
2023-11-08T15:21:26.615Z,2.95
2023-11-08T15:24:12.650Z,4.05
2023-11-08T15:26:58.158Z,2.35
2023-11-08T15:29:43.329Z,6.18
2023-11-08T15:32:29.171Z,5.97
2023-11-08T15:35:14.241Z,4.57
2023-11-08T15:37:59.849Z,4.28
2023-11-08T15:40:46.004Z,6.95
2023-11-08T15:43:31.140Z,6.35
2023-11-08T15:46:16.575Z,7.05
2023-11-08T15:49:01.697Z,6.30
2023-11-08T15:51:47.157Z,5.25
2023-11-08T15:54:32.211Z,5.38
2023-11-08T15:57:17.590Z,3.45
2023-11-08T16:00:02.875Z,3.10
2023-11-08T16:02:48.348Z,9.48
2023-11-08T16:05:35.052Z,1.80
2023-11-08T16:08:20.543Z,2.35
2023-11-08T16:11:06.272Z,5.07
2023-11-08T16:13:53.683Z,4.50
2023-11-08T16:16:44.083Z,9.30
2023-11-08T16:19:29.323Z,8.15
2023-11-08T16:22:14.974Z,9.35
2023-11-08T16:25:00.804Z,3.55
2023-11-08T16:27:46.695Z,7.07
2023-11-08T16:30:59.936Z,4.63
2023-11-08T16:33:39.162Z,6.50
2023-11-08T16:36:26.519Z,6.30
2023-11-08T16:39:15.293Z,3.92
2023-11-08T16:42:01.772Z,5.20
2023-11-08T16:44:47.297Z,6.30
2023-11-08T16:47:34.078Z,5.53
2023-11-08T16:50:19.538Z,6.90
2023-11-08T16:53:08.855Z,3.50
2023-11-08T16:55:54.185Z,4.18
2023-11-08T16:58:42.590Z,5.82
2023-11-08T17:01:30.768Z,9.55
2023-11-08T17:04:15.881Z,7.93
2023-11-08T17:07:01.195Z,5.32
2023-11-08T17:09:46.201Z,9.52
2023-11-08T17:12:31.559Z,7.53
2023-11-08T17:15:17.702Z,9.77
2023-11-08T17:18:03.205Z,18.48
2023-11-08T17:20:51.419Z,17.60
2023-11-08T17:23:36.625Z,9.15
2023-11-08T17:26:22.003Z,14.65
2023-11-08T17:29:07.322Z,12.00
2023-11-08T17:31:52.836Z,11.40
2023-11-08T17:34:38.474Z,12.65
2023-11-08T17:37:23.642Z,11.52
2023-11-08T17:40:09.771Z,11.43
2023-11-08T17:42:55.344Z,22.98
2023-11-08T17:45:42.701Z,17.55
2023-11-08T17:48:28.002Z,14.57
2023-11-08T17:51:13.414Z,24.35
2023-11-08T17:53:58.879Z,17.25
2023-11-08T17:56:47.437Z,28.27
2023-11-08T17:59:33.642Z,14.45
2023-11-08T18:02:18.688Z,16.80
2023-11-08T18:05:04.486Z,12.05
2023-11-08T18:07:49.891Z,9.93
2023-11-08T18:10:35.354Z,14.68
2023-11-08T18:13:20.515Z,24.45
2023-11-08T18:16:06.157Z,42.85
2023-11-08T18:18:51.478Z,25.30
2023-11-08T18:21:37.687Z,15.32
2023-11-08T18:24:23.855Z,32.20
2023-11-08T18:27:09.446Z,33.15
2023-11-08T18:29:55.403Z,32.30
2023-11-08T18:32:40.830Z,33.72
2023-11-08T18:35:26.529Z,27.50
2023-11-08T18:38:11.752Z,22.55
2023-11-08T18:40:56.909Z,24.10
2023-11-08T18:43:47.491Z,23.20
2023-11-08T18:46:33.758Z,21.23
2023-11-08T18:49:19.277Z,19.85
2023-11-08T18:52:06.104Z,15.50
2023-11-08T18:54:52.607Z,11.40
2023-11-08T18:57:38.223Z,18.85
2023-11-08T19:00:24.558Z,14.32
2023-11-08T19:03:10.091Z,15.55
2023-11-08T19:05:55.370Z,9.90
2023-11-08T19:08:40.804Z,15.15
2023-11-08T19:11:29.996Z,14.05
2023-11-08T19:17:03.181Z,14.07
2023-11-08T19:19:48.585Z,8.90
2023-11-08T19:22:33.879Z,9.10
2023-11-08T19:25:19.572Z,10.23
2023-11-08T19:28:04.701Z,16.38
2023-11-08T19:30:50.375Z,15.85
2023-11-08T19:33:35.962Z,12.23
2023-11-08T19:36:24.571Z,11.07
2023-11-08T19:39:09.903Z,10.93
2023-11-08T19:41:55.871Z,16.85
2023-11-08T19:44:42.046Z,12.75
2023-11-08T19:47:28.002Z,15.55
2023-11-08T19:50:13.545Z,12.65
2023-11-08T19:52:59.669Z,12.88
2023-11-08T19:55:45.487Z,12.32
2023-11-08T19:58:31.034Z,17.98
2023-11-08T20:01:16.925Z,9.90
2023-11-08T20:04:02.719Z,12.02
2023-11-08T20:06:50.351Z,15.02
2023-11-08T20:09:36.236Z,12.05
2023-11-08T20:12:22.026Z,10.88
2023-11-08T20:15:08.525Z,12.60
2023-11-08T20:17:54.267Z,11.40
2023-11-08T20:20:39.799Z,10.05
2023-11-08T20:23:27.444Z,10.95
2023-11-08T20:26:12.964Z,11.05
2023-11-08T20:28:58.342Z,16.92
2023-11-08T20:31:46.055Z,8.68
2023-11-08T20:34:32.411Z,5.55
2023-11-08T20:37:17.993Z,7.20
2023-11-08T20:40:04.487Z,7.03
2023-11-08T20:42:50.449Z,5.43
2023-11-08T20:45:35.862Z,5.35
2023-11-08T20:48:20.993Z,9.18
2023-11-08T20:51:06.625Z,6.85
2023-11-08T20:53:51.751Z,5.15
2023-11-08T20:56:37.250Z,9.73
2023-11-08T20:59:23.073Z,3.15
2023-11-08T21:02:08.551Z,4.35
2023-11-08T21:04:53.869Z,4.78
2023-11-08T21:07:39.295Z,9.27
2023-11-08T21:10:24.819Z,6.95
2023-11-08T21:13:10.156Z,7.47
2023-11-08T21:15:55.671Z,6.30
2023-11-08T21:18:41.665Z,4.90
2023-11-08T21:21:27.161Z,4.35
2023-11-08T21:24:13.008Z,6.95
2023-11-08T21:26:58.320Z,5.57
2023-11-08T21:29:43.735Z,4.90
2023-11-08T21:32:29.071Z,4.60
2023-11-08T21:35:14.515Z,4.90
2023-11-08T21:38:00.205Z,10.93
2023-11-08T21:40:45.225Z,6.90
2023-11-08T21:43:30.601Z,7.10
2023-11-08T21:46:15.916Z,7.20
2023-11-08T21:49:01.395Z,8.73
2023-11-08T21:51:47.034Z,4.80
2023-11-08T21:54:32.374Z,4.60
2023-11-08T21:57:18.935Z,8.32
2023-11-08T22:00:07.523Z,4.43
2023-11-08T22:02:52.938Z,4.97
2023-11-08T22:05:40.017Z,6.63
2023-11-08T22:08:25.132Z,6.35
2023-11-08T22:11:10.569Z,5.55
2023-11-08T22:13:56.164Z,4.70
2023-11-08T22:16:41.297Z,5.90
2023-11-08T22:19:26.697Z,8.63
2023-11-08T22:22:12.001Z,6.03
2023-11-08T22:24:58.703Z,7.55
2023-11-08T22:27:43.728Z,5.70
2023-11-08T22:30:29.214Z,5.55
2023-11-08T22:33:14.540Z,5.32
2023-11-08T22:35:59.945Z,4.47
2023-11-08T22:38:45.272Z,4.40
2023-11-08T22:41:30.660Z,2.17
2023-11-08T22:44:16.208Z,4.03
2023-11-08T22:47:01.513Z,2.15
2023-11-08T22:49:46.939Z,1.60
2023-11-08T22:52:32.258Z,2.88
2023-11-08T22:55:17.705Z,3.97
2023-11-08T22:58:03.380Z,2.65
2023-11-08T23:00:50.672Z,2.15
2023-11-08T23:03:35.743Z,3.85
2023-11-08T23:06:23.827Z,3.78
2023-11-08T23:09:09.452Z,5.50
2023-11-08T23:11:56.016Z,4.60
2023-11-08T23:14:41.949Z,3.20
2023-11-08T23:17:27.009Z,2.72
2023-11-08T23:20:15.938Z,4.43
2023-11-08T23:23:01.335Z,5.22
2023-11-08T23:25:46.681Z,2.40
2023-11-08T23:28:32.480Z,2.30
2023-11-08T23:31:21.001Z,3.08
2023-11-08T23:34:06.941Z,2.75
2023-11-08T23:36:52.487Z,3.17
2023-11-08T23:39:37.853Z,4.75
2023-11-08T23:42:23.147Z,2.95
2023-11-08T23:45:08.832Z,3.53
2023-11-08T23:47:53.932Z,13.25
2023-11-08T23:50:39.500Z,26.13
2023-11-08T23:53:25.258Z,43.15
2023-11-08T23:56:10.613Z,33.25
2023-11-08T23:58:56.045Z,34.78
